createdAt,value
2022-09-24T00:03:14.633Z,83.49
2022-09-24T00:08:17.029Z,83.10
2022-09-24T00:13:19.383Z,83.53
2022-09-24T00:18:21.906Z,84.03
2022-09-24T00:23:22.683Z,84.73
2022-09-24T00:28:24.641Z,84.43
2022-09-24T00:33:26.143Z,84.91
2022-09-24T00:38:26.761Z,84.16
2022-09-24T00:43:30.936Z,84.62
2022-09-24T00:48:34.276Z,85.47
2022-09-24T00:53:35.780Z,85.08
2022-09-24T00:58:38.113Z,85.73
2022-09-24T01:03:42.385Z,85.63
2022-09-24T01:08:43.475Z,86.54
2022-09-24T01:13:56.345Z,86.70
2022-09-24T01:19:05.750Z,86.59
2022-09-24T01:24:41.117Z,87.16
2022-09-24T01:29:53.284Z,87.88
2022-09-24T01:34:58.808Z,88.54
2022-09-24T01:40:00.747Z,88.84
2022-09-24T01:45:03.748Z,88.67
2022-09-24T01:50:05.884Z,88.94
2022-09-24T01:55:08.965Z,89.23
2022-09-24T02:00:13.078Z,89.50
2022-09-24T02:05:19.742Z,88.91
2022-09-24T02:10:21.631Z,89.83
2022-09-24T02:15:32.215Z,89.42
2022-09-24T02:20:36.269Z,89.94
2022-09-24T02:25:42.823Z,89.52
2022-09-24T02:30:50.819Z,89.84
2022-09-24T02:35:53.378Z,90.31
2022-09-24T02:40:55.256Z,89.33
2022-09-24T02:45:57.377Z,89.18
2022-09-24T02:50:57.989Z,89.90
2022-09-24T02:56:00.262Z,89.01
2022-09-24T03:01:02.304Z,89.31
2022-09-24T03:06:02.910Z,89.63
2022-09-24T03:11:04.175Z,88.85
2022-09-24T03:16:07.578Z,88.75
2022-09-24T03:21:12.111Z,88.39
2022-09-24T03:26:13.116Z,88.37
2022-09-24T03:31:15.133Z,88.18
2022-09-24T03:36:18.039Z,88.41
2022-09-24T03:41:18.963Z,87.90
2022-09-24T03:46:21.034Z,88.21
2022-09-24T03:51:22.800Z,88.45
2022-09-24T03:56:23.445Z,87.58
2022-09-24T04:01:25.463Z,87.70
2022-09-24T04:06:27.088Z,87.56
2022-09-24T04:11:27.831Z,88.26
2022-09-24T04:16:29.847Z,88.34
2022-09-24T04:21:30.947Z,88.54
2022-09-24T04:26:32.007Z,88.01
2022-09-24T04:31:34.326Z,88.48
2022-09-24T04:36:35.004Z,88.83
2022-09-24T04:41:36.055Z,89.08
2022-09-24T04:46:38.209Z,89.06
2022-09-24T04:51:39.137Z,89.37
2022-09-24T04:56:39.736Z,89.08
2022-09-24T05:01:41.780Z,89.32
2022-09-24T05:06:42.477Z,88.13
2022-09-24T05:11:43.082Z,88.03
2022-09-24T05:16:45.053Z,88.25
2022-09-24T05:21:46.318Z,87.98
2022-09-24T05:27:04.642Z,87.56
2022-09-24T05:32:13.042Z,86.97
2022-09-24T05:37:15.524Z,86.35
2022-09-24T05:42:16.233Z,85.70
2022-09-24T05:47:18.284Z,84.63
2022-09-24T05:52:18.927Z,83.92
2022-09-24T05:57:19.694Z,82.68
2022-09-24T06:02:21.688Z,82.91
2022-09-24T06:07:22.453Z,81.90
2022-09-24T06:12:23.580Z,80.81
2022-09-24T06:17:27.217Z,80.44
2022-09-24T06:22:29.221Z,80.38
2022-09-24T06:27:29.828Z,79.98
2022-09-24T06:32:32.064Z,79.52
2022-09-24T06:37:34.044Z,78.11
2022-09-24T06:42:34.717Z,77.62
2022-09-24T06:47:36.697Z,76.75
2022-09-24T06:52:37.446Z,75.76
2022-09-24T06:57:38.125Z,79.18
2022-09-24T07:02:40.185Z,78.74
2022-09-24T07:07:41.421Z,78.44
2022-09-24T07:12:42.814Z,75.62
2022-09-24T07:17:44.762Z,76.79
2022-09-24T07:22:45.433Z,75.57
2022-09-24T07:27:46.063Z,73.65
2022-09-24T07:32:48.342Z,72.76
2022-09-24T07:37:48.996Z,70.67
2022-09-24T07:42:49.758Z,70.21
2022-09-24T07:47:59.842Z,69.99
2022-09-24T07:53:01.395Z,70.10
2022-09-24T07:58:02.161Z,68.63
2022-09-24T08:03:05.631Z,68.74
2022-09-24T08:08:06.457Z,69.29
2022-09-24T08:13:07.086Z,68.67
2022-09-24T08:18:09.281Z,67.49
2022-09-24T08:23:11.055Z,65.88
2022-09-24T08:28:12.152Z,63.65
2022-09-24T08:33:15.390Z,65.01
2022-09-24T08:38:15.996Z,63.83
2022-09-24T08:43:30.965Z,64.19
2022-09-24T08:48:37.222Z,64.33
2022-09-24T08:53:48.633Z,63.90
2022-09-24T08:58:53.881Z,64.13
2022-09-24T09:04:05.012Z,64.08
2022-09-24T09:09:12.840Z,62.74
2022-09-24T09:14:18.712Z,61.19
2022-09-24T09:19:27.525Z,59.99
2022-09-24T09:24:36.157Z,57.90
2022-09-24T09:29:37.521Z,57.46
2022-09-24T09:34:52.527Z,56.77
2022-09-24T09:40:00.498Z,55.88
2022-09-24T09:45:02.813Z,55.01
2022-09-24T09:50:12.339Z,54.66
2022-09-24T09:55:23.045Z,54.16
2022-09-24T10:00:33.545Z,52.41
2022-09-24T10:05:35.832Z,51.35
2022-09-24T10:10:36.465Z,51.12
2022-09-24T10:15:50.078Z,49.74
2022-09-24T10:20:52.519Z,49.82
2022-09-24T10:25:59.928Z,50.33
2022-09-24T10:31:04.738Z,49.88
2022-09-24T10:36:09.609Z,52.08
2022-09-24T10:41:27.829Z,51.09
2022-09-24T10:46:44.134Z,49.98
2022-09-24T10:51:53.250Z,50.26
2022-09-24T10:56:57.761Z,48.40
2022-09-24T11:02:18.105Z,47.42
2022-09-24T11:07:50.249Z,48.39
2022-09-24T11:13:03.652Z,48.14
2022-09-24T11:18:19.785Z,47.19
2022-09-24T11:23:43.651Z,47.86
2022-09-24T11:29:05.366Z,48.00
2022-09-24T11:34:22.694Z,47.72
2022-09-24T11:39:38.938Z,47.58
2022-09-24T11:45:02.905Z,48.03
2022-09-24T11:50:27.256Z,47.96
2022-09-24T11:55:35.803Z,46.38
2022-09-24T12:00:41.576Z,45.97
2022-09-24T12:05:49.377Z,46.08
2022-09-24T12:10:57.930Z,46.24
2022-09-24T12:16:04.202Z,46.80
2022-09-24T12:21:10.761Z,45.67
2022-09-24T12:26:16.935Z,45.89
2022-09-24T12:31:43.053Z,45.72
2022-09-24T12:36:57.559Z,44.84
2022-09-24T12:42:03.989Z,45.86
2022-09-24T12:47:07.233Z,44.81
2022-09-24T12:52:19.142Z,44.40
2022-09-24T12:57:26.143Z,44.43
2022-09-24T13:02:29.544Z,45.35
2022-09-24T13:07:32.335Z,44.19
2022-09-24T13:12:34.426Z,45.76
2022-09-24T13:17:38.258Z,45.21
2022-09-24T13:22:38.944Z,45.09
2022-09-24T13:27:43.329Z,43.13
2022-09-24T13:32:50.277Z,42.77
2022-09-24T13:37:57.148Z,43.43
2022-09-24T13:43:06.276Z,43.61
2022-09-24T13:48:19.547Z,43.50
2022-09-24T13:53:27.510Z,42.77
2022-09-24T13:58:31.261Z,43.41
2022-09-24T14:03:34.612Z,42.50
2022-09-24T14:08:36.089Z,42.89
2022-09-24T14:13:45.688Z,42.12
2022-09-24T14:18:47.074Z,41.70
2022-09-24T14:23:54.629Z,43.13
2022-09-24T14:28:59.038Z,42.58
2022-09-24T14:34:04.383Z,41.91
2022-09-24T14:39:06.787Z,40.96
2022-09-24T14:44:15.412Z,41.31
2022-09-24T14:49:20.439Z,42.60
2022-09-24T14:54:28.422Z,42.77
2022-09-24T14:59:32.244Z,43.66
2022-09-24T15:04:33.162Z,43.76
2022-09-24T15:09:33.964Z,45.96
2022-09-24T15:14:36.778Z,46.56
2022-09-24T15:19:40.887Z,48.08
2022-09-24T15:24:41.591Z,49.33
2022-09-24T15:29:43.565Z,49.74
2022-09-24T15:34:44.386Z,50.57
2022-09-24T15:39:49.163Z,52.03
2022-09-24T15:44:51.650Z,52.84
2022-09-24T15:49:52.451Z,54.47
2022-09-24T15:54:54.368Z,54.25
2022-09-24T15:59:56.501Z,55.68
2022-09-24T16:05:01.456Z,56.54
2022-09-24T16:10:05.245Z,57.30
2022-09-24T16:15:09.074Z,57.95
2022-09-24T16:20:10.670Z,58.50
2022-09-24T16:25:11.419Z,59.30
2022-09-24T16:30:13.626Z,60.93
2022-09-24T16:35:14.323Z,62.53
2022-09-24T16:40:15.442Z,63.07
2022-09-24T16:45:18.085Z,63.34
2022-09-24T16:50:20.169Z,63.93
2022-09-24T16:55:20.885Z,64.42
2022-09-24T17:00:22.894Z,64.88
2022-09-24T17:05:23.761Z,64.63
2022-09-24T17:10:24.438Z,64.34
2022-09-24T17:15:27.324Z,64.97
2022-09-24T17:20:27.978Z,65.66
2022-09-24T17:25:28.651Z,65.55
2022-09-24T17:30:30.734Z,66.45
2022-09-24T17:35:31.387Z,67.62
2022-09-24T17:40:32.075Z,68.10
2022-09-24T17:45:34.156Z,68.83
2022-09-24T17:50:34.839Z,69.35
2022-09-24T17:55:36.066Z,69.73
2022-09-24T18:00:39.280Z,70.59
2022-09-24T18:05:40.304Z,70.47
2022-09-24T18:10:41.077Z,71.83
2022-09-24T18:15:43.108Z,71.84
2022-09-24T18:20:43.896Z,72.57
2022-09-24T18:25:44.644Z,72.77
2022-09-24T18:30:46.681Z,73.77
2022-09-24T18:35:47.338Z,73.72
2022-09-24T18:40:49.348Z,73.84
2022-09-24T18:45:51.446Z,74.26
2022-09-24T18:50:52.139Z,74.29
2022-09-24T18:55:53.109Z,75.03
2022-09-24T19:00:59.800Z,75.29
2022-09-24T19:06:02.825Z,76.70
2022-09-24T19:11:09.271Z,76.92
2022-09-24T19:16:13.333Z,77.44
2022-09-24T19:21:15.657Z,77.27
2022-09-24T19:26:18.031Z,77.79
2022-09-24T19:31:22.202Z,78.36
2022-09-24T19:36:23.402Z,79.81
2022-09-24T19:41:26.995Z,79.66
2022-09-24T19:46:31.269Z,80.56
2022-09-24T19:51:34.187Z,81.38
2022-09-24T19:56:35.360Z,81.97
2022-09-24T20:01:37.684Z,82.31
2022-09-24T20:06:39.664Z,82.15
2022-09-24T20:11:40.581Z,82.85
2022-09-24T20:16:44.548Z,82.23
2022-09-24T20:21:45.218Z,81.77
2022-09-24T20:27:03.558Z,81.38
2022-09-24T20:32:05.759Z,81.44
2022-09-24T20:37:06.674Z,81.38
2022-09-24T20:42:07.318Z,81.08
2022-09-24T20:47:10.392Z,81.29
2022-09-24T20:52:11.040Z,81.39
2022-09-24T20:57:11.671Z,80.94
2022-09-24T21:02:13.701Z,82.24
2022-09-24T21:07:14.453Z,82.58
2022-09-24T21:12:15.066Z,83.30
2022-09-24T21:17:17.864Z,83.25
2022-09-24T21:22:18.547Z,83.48
2022-09-24T21:27:19.962Z,84.10
2022-09-24T21:32:22.086Z,84.31
2022-09-24T21:37:23.318Z,85.33
2022-09-24T21:42:25.406Z,85.35
2022-09-24T21:47:27.357Z,85.91
2022-09-24T21:52:31.318Z,86.33
2022-09-24T21:57:31.935Z,86.51
2022-09-24T22:02:33.941Z,87.60
2022-09-24T22:07:34.607Z,87.76
2022-09-24T22:12:35.459Z,88.37
2022-09-24T22:17:37.530Z,89.28
2022-09-24T22:22:38.145Z,89.14
2022-09-24T22:27:38.766Z,90.02
2022-09-24T22:32:40.750Z,90.29
2022-09-24T22:37:41.401Z,90.89
2022-09-24T22:42:42.002Z,91.46
2022-09-24T22:47:43.962Z,92.10
2022-09-24T22:52:44.589Z,91.87
2022-09-24T22:57:45.189Z,91.83
2022-09-24T23:02:47.336Z,92.22
2022-09-24T23:07:49.009Z,92.64
2022-09-24T23:12:50.075Z,93.20
2022-09-24T23:17:52.230Z,92.53
2022-09-24T23:22:52.892Z,92.94
2022-09-24T23:27:53.509Z,93.06
2022-09-24T23:32:55.455Z,92.93
2022-09-24T23:37:56.090Z,93.68
2022-09-24T23:42:56.770Z,93.30
2022-09-24T23:47:59.096Z,93.95
2022-09-24T23:52:59.748Z,93.94
2022-09-24T23:58:00.463Z,94.30
